KTEX Airport Information

Runway Information
Runway 09 Length 6870 ft width 100 ft
Elevation 9061 ft Threshold 0 ft Heading 105
Runway 27 Length 6870 ft Width 100 ft
Elevation 9078 ft Threshold 0 ft Heading 285
Airport Frequencies
Type CNTR Name DENVER CNT Frequency 125.35 MHZ
Type FSS Name DENVER RDO Frequency 122.15 MHZ
Type UNIC Name CTAF/UNICO Frequency 123 MHZ
Airport Navaids
Airport Weather Information & NOTAM
ADDS - METARS form results

(0148 UTC 19 January 2018)
 
METAR text: KTEX 190135Z AUTO 13009KT 10SM CLR 02/M10 A3025 RMK AO2 T00161097
Conditions at: KTEX (TELLURIDE REGION, CO, US) observed 0135 UTC 19 January 2018
Temperature: 1.6°C (35°F)
Dewpoint: -9.7°C (15°F) [RH = 43%]
Pressure (altimeter): 30.25 inches Hg (1024.5 mb)
Winds: from the SE (130 degrees) at 10 MPH (9 knots; 4.7 m/s)
Visibility: 10 or more miles (16+ km)
Ceiling: at least 12,000 feet AGL
Clouds: sky clear below 12,000 feet AGL
Weather: automated observation with no human augmentation;
there may or may not be significant weather present at this time

METAR text: KTEX 190115Z AUTO 00000KT 10SM CLR 03/M10 A3025 RMK AO2 T00291102
Conditions at: KTEX (TELLURIDE REGION, CO, US) observed 0115 UTC 19 January 2018
Temperature: 2.9°C (37°F)
Dewpoint: -10.2°C (14°F) [RH = 37%]
Pressure (altimeter): 30.25 inches Hg (1024.5 mb)
Winds: calm
Visibility: 10 or more miles (16+ km)
Ceiling: at least 12,000 feet AGL
Clouds: sky clear below 12,000 feet AGL
Weather: automated observation with no human augmentation;
there may or may not be significant weather present at this time

METAR text: KTEX 190055Z AUTO 00000KT 10SM CLR 04/M11 A3026 RMK AO2 T00361106
Conditions at: KTEX (TELLURIDE REGION, CO, US) observed 0055 UTC 19 January 2018
Temperature: 3.6°C (38°F)
Dewpoint: -10.6°C (13°F) [RH = 35%]
Pressure (altimeter): 30.26 inches Hg (1024.8 mb)
Winds: calm
Visibility: 10 or more miles (16+ km)
Ceiling: at least 12,000 feet AGL
Clouds: sky clear below 12,000 feet AGL
Weather: automated observation with no human augmentation;
there may or may not be significant weather present at this time